createdAt,value
2023-05-05T19:15:24.753Z,14.58
2023-05-05T19:16:24.544Z,14.47
2023-05-05T19:17:24.592Z,14.53
2023-05-05T19:18:24.540Z,14.51
2023-05-05T19:19:24.502Z,14.48
2023-05-05T19:20:24.527Z,14.55
2023-05-05T19:21:24.512Z,14.58
2023-05-05T19:22:24.538Z,14.51
2023-05-05T19:23:24.469Z,14.58
2023-05-05T19:24:24.489Z,14.45
2023-05-05T19:25:24.469Z,14.36
2023-05-05T19:26:24.473Z,14.29
2023-05-05T19:27:24.484Z,14.29
2023-05-05T19:28:24.440Z,14.22
2023-05-05T19:29:24.454Z,14.30
2023-05-05T19:30:24.459Z,14.28
2023-05-05T19:31:24.579Z,14.30
2023-05-05T19:32:24.467Z,14.32
2023-05-05T19:33:24.453Z,14.33
2023-05-05T19:34:24.404Z,14.23
2023-05-05T19:35:24.411Z,14.37
2023-05-05T19:36:24.397Z,14.40
2023-05-05T19:37:24.439Z,14.50
2023-05-05T19:38:24.416Z,14.77
2023-05-05T19:39:24.349Z,14.88
2023-05-05T19:40:24.383Z,14.92
2023-05-05T19:41:24.365Z,14.91
2023-05-05T19:42:24.337Z,14.86
2023-05-05T19:43:24.384Z,14.89
2023-05-05T19:44:24.896Z,14.79
2023-05-05T19:45:24.324Z,14.85
2023-05-05T19:46:24.462Z,14.94
2023-05-05T19:47:24.455Z,14.84
2023-05-05T19:48:24.839Z,14.72
2023-05-05T19:49:24.317Z,14.58
2023-05-05T19:50:24.342Z,14.53
2023-05-05T19:51:24.318Z,14.63
2023-05-05T19:52:24.264Z,14.62
2023-05-05T19:53:24.299Z,14.70
2023-05-05T19:54:24.856Z,14.62
2023-05-05T19:55:28.986Z,14.58
2023-05-05T19:56:25.380Z,14.59
2023-05-05T19:57:24.927Z,14.50
2023-05-05T19:58:24.794Z,14.48
2023-05-05T19:59:24.237Z,14.40
2023-05-05T20:00:24.213Z,14.41
2023-05-05T20:01:24.293Z,14.45
2023-05-05T20:02:24.324Z,14.48
2023-05-05T20:03:24.338Z,14.48
2023-05-05T20:04:24.248Z,14.47
2023-05-05T20:05:24.200Z,14.45
2023-05-05T20:06:24.202Z,14.53
2023-05-05T20:07:24.155Z,14.62
2023-05-05T20:08:24.225Z,14.62
2023-05-05T20:09:24.202Z,14.45
2023-05-05T20:10:24.253Z,14.37
2023-05-05T20:11:24.160Z,14.30
2023-05-05T20:12:24.193Z,14.28
2023-05-05T20:13:24.192Z,14.25
2023-05-05T20:14:24.142Z,13.97
2023-05-05T20:15:24.160Z,14.00
2023-05-05T20:16:24.298Z,14.04
2023-05-05T20:17:24.137Z,13.96
2023-05-05T20:18:24.190Z,13.86
2023-05-05T20:19:24.150Z,13.85
2023-05-05T20:20:24.105Z,13.95
2023-05-05T20:21:24.106Z,14.00
2023-05-05T20:22:24.107Z,14.00
2023-05-05T20:23:24.171Z,13.95
2023-05-05T20:24:24.089Z,13.93
2023-05-05T20:25:24.212Z,13.90
2023-05-05T20:26:24.047Z,13.81
2023-05-05T20:27:25.895Z,13.83
2023-05-05T20:28:24.091Z,13.77
2023-05-05T20:29:24.033Z,13.63
2023-05-05T20:30:24.007Z,13.71
2023-05-05T20:31:24.049Z,13.74
2023-05-05T20:32:24.041Z,13.85
2023-05-05T20:33:23.977Z,14.04
2023-05-05T20:34:24.019Z,14.17
2023-05-05T20:35:24.072Z,14.12
2023-05-05T20:36:23.956Z,14.11
2023-05-05T20:37:23.997Z,14.20
2023-05-05T20:38:23.965Z,14.11
2023-05-05T20:39:23.948Z,14.15
2023-05-05T20:40:23.943Z,14.03
2023-05-05T20:41:23.944Z,13.92
2023-05-05T20:42:23.969Z,14.00
2023-05-05T20:43:23.956Z,13.97
2023-05-05T20:44:23.918Z,14.00
2023-05-05T20:45:23.923Z,14.07
2023-05-05T20:46:23.962Z,14.08
2023-05-05T20:47:23.998Z,14.28
2023-05-05T20:48:23.930Z,14.22
2023-05-05T20:49:23.929Z,14.32
2023-05-05T20:50:23.916Z,14.29
2023-05-05T20:51:23.974Z,14.33
2023-05-05T20:52:23.935Z,14.30
2023-05-05T20:53:23.861Z,14.32
2023-05-05T20:54:23.843Z,14.35
2023-05-05T20:55:23.909Z,14.47
2023-05-05T20:56:23.942Z,14.45
2023-05-05T20:57:23.849Z,14.41
2023-05-05T20:58:23.898Z,14.45
2023-05-05T20:59:23.841Z,14.41
2023-05-05T21:00:23.872Z,14.35
2023-05-05T21:01:23.881Z,14.29
2023-05-05T21:02:23.883Z,14.30
2023-05-05T21:03:23.812Z,14.20
2023-05-05T21:04:23.789Z,14.26
2023-05-05T21:05:23.807Z,14.05
2023-05-05T21:06:23.791Z,14.22
2023-05-05T21:07:23.824Z,14.32
2023-05-05T21:08:23.783Z,14.33
2023-05-05T21:09:23.796Z,14.33
2023-05-05T21:10:23.804Z,14.32
2023-05-05T21:11:23.737Z,14.30
2023-05-05T21:12:23.836Z,14.26
2023-05-05T21:13:23.782Z,14.32
2023-05-05T21:14:23.796Z,14.29
2023-05-05T21:15:23.774Z,14.32
2023-05-05T21:16:23.790Z,14.20
2023-05-05T21:17:23.733Z,14.17
2023-05-05T21:18:23.682Z,14.12
2023-05-05T21:19:23.687Z,14.11
2023-05-05T21:20:23.665Z,14.11
2023-05-05T21:21:23.653Z,14.05
2023-05-05T21:22:23.670Z,14.05
2023-05-05T21:23:23.723Z,13.99
2023-05-05T21:24:23.658Z,13.93
2023-05-05T21:25:23.645Z,13.96
2023-05-05T21:26:23.713Z,14.08
2023-05-05T21:27:23.630Z,14.10
2023-05-05T21:28:23.683Z,13.99
2023-05-05T21:29:23.585Z,14.14
2023-05-05T21:30:23.642Z,14.11
2023-05-05T21:31:23.587Z,14.03
2023-05-05T21:32:23.831Z,13.89
2023-05-05T21:33:23.635Z,13.71
2023-05-05T21:34:24.618Z,13.52
2023-05-05T21:35:23.626Z,13.56
2023-05-05T21:36:23.599Z,13.42
2023-05-05T21:37:23.591Z,13.41
2023-05-05T21:38:23.561Z,13.33
2023-05-05T21:39:23.600Z,13.30
2023-05-05T21:40:23.578Z,13.27
2023-05-05T21:41:23.563Z,13.28
2023-05-05T21:42:23.545Z,13.18
2023-05-05T21:43:23.494Z,13.33
2023-05-05T21:44:23.569Z,13.47
2023-05-05T21:45:23.544Z,13.59
2023-05-05T21:46:23.616Z,13.68
2023-05-05T21:47:23.596Z,13.56
2023-05-05T21:48:23.475Z,13.49
2023-05-05T21:49:23.515Z,13.44
2023-05-05T21:50:23.488Z,13.41
2023-05-05T21:51:23.465Z,13.37
2023-05-05T21:52:23.425Z,13.53
2023-05-05T21:53:23.469Z,13.78
2023-05-05T21:54:23.447Z,13.92
2023-05-05T21:55:23.405Z,14.18
2023-05-05T21:56:23.447Z,14.36
2023-05-05T21:57:23.459Z,14.40
2023-05-05T21:58:23.390Z,14.65
2023-05-05T21:59:23.387Z,14.66
2023-05-05T22:00:23.417Z,14.36
2023-05-05T22:01:23.467Z,14.03
2023-05-05T22:02:23.477Z,13.41
2023-05-05T22:03:23.470Z,13.00
2023-05-05T22:04:23.357Z,12.75
2023-05-05T22:05:23.376Z,12.93
2023-05-05T22:06:23.391Z,13.04
2023-05-05T22:07:23.343Z,13.27
2023-05-05T22:08:23.322Z,13.62
2023-05-05T22:09:23.303Z,13.68
2023-05-05T22:10:23.323Z,13.87
2023-05-05T22:11:23.296Z,13.81
2023-05-05T22:12:23.403Z,13.72
2023-05-05T22:13:23.485Z,13.56
2023-05-05T22:14:23.274Z,13.49
2023-05-05T22:15:25.374Z,13.31
2023-05-05T22:16:23.421Z,13.08
2023-05-05T22:17:23.259Z,12.93
2023-05-05T22:18:23.252Z,12.85
2023-05-05T22:19:23.283Z,12.75
2023-05-05T22:20:23.294Z,12.79
2023-05-05T22:21:23.240Z,12.76
2023-05-05T22:22:23.233Z,12.80
2023-05-05T22:23:23.199Z,12.65
2023-05-05T22:24:23.224Z,12.82
2023-05-05T22:25:23.256Z,12.87
2023-05-05T22:26:23.235Z,12.80
2023-05-05T22:27:23.174Z,12.93
2023-05-05T22:28:23.195Z,13.00
2023-05-05T22:29:23.170Z,12.93
2023-05-05T22:30:23.183Z,12.97
2023-05-05T22:31:23.217Z,12.91
2023-05-05T22:32:23.183Z,12.86
2023-05-05T22:33:23.158Z,13.00
2023-05-05T22:34:23.140Z,12.87
2023-05-05T22:35:23.170Z,12.86
2023-05-05T22:36:23.122Z,12.86
2023-05-05T22:37:23.119Z,12.91
2023-05-05T22:38:23.156Z,12.94
2023-05-05T22:39:23.103Z,12.94
2023-05-05T22:40:23.096Z,13.04
2023-05-05T22:41:23.101Z,13.05
2023-05-05T22:42:23.099Z,13.13
2023-05-05T22:43:23.099Z,13.03
2023-05-05T22:44:23.052Z,13.23
2023-05-05T22:45:23.104Z,13.27
2023-05-05T22:46:23.100Z,13.16
2023-05-05T22:47:23.110Z,13.15
2023-05-05T22:48:23.040Z,12.98
2023-05-05T22:49:23.119Z,13.01
2023-05-05T22:50:22.995Z,13.03
2023-05-05T22:51:23.029Z,13.03
2023-05-05T22:52:23.053Z,13.08
2023-05-05T22:53:23.005Z,13.13
2023-05-05T22:54:23.012Z,13.22
2023-05-05T22:55:22.960Z,13.23
2023-05-05T22:56:22.994Z,13.30
2023-05-05T22:57:22.993Z,13.38
2023-05-05T22:58:22.922Z,13.37
2023-05-05T22:59:23.038Z,13.52
2023-05-05T23:00:22.953Z,13.67
2023-05-05T23:01:23.098Z,13.78
2023-05-05T23:02:22.965Z,13.71
2023-05-05T23:03:22.974Z,13.60
2023-05-05T23:04:22.927Z,13.57
2023-05-05T23:05:22.883Z,13.56
2023-05-05T23:06:22.965Z,13.59
2023-05-05T23:07:22.912Z,13.70
2023-05-05T23:08:22.855Z,13.60
2023-05-05T23:09:22.851Z,13.71
2023-05-05T23:10:22.874Z,13.62
2023-05-05T23:11:22.903Z,13.62
2023-05-05T23:12:22.854Z,13.71
2023-05-05T23:13:23.883Z,13.54
2023-05-05T23:14:22.821Z,13.39
2023-05-05T23:15:22.869Z,13.22
2023-05-05T23:16:22.896Z,13.09
2023-05-05T23:17:22.851Z,13.05
2023-05-05T23:18:22.813Z,13.12
2023-05-05T23:19:22.790Z,13.13
2023-05-05T23:20:22.779Z,13.08
2023-05-05T23:21:22.791Z,13.19
2023-05-05T23:22:22.803Z,13.41
2023-05-05T23:23:22.801Z,13.39
2023-05-05T23:24:22.789Z,13.38
2023-05-05T23:25:22.755Z,13.33
2023-05-05T23:26:22.805Z,13.46
2023-05-05T23:27:22.744Z,13.39
2023-05-05T23:28:22.756Z,13.39
2023-05-05T23:29:22.753Z,13.37
2023-05-05T23:30:22.746Z,13.22
2023-05-05T23:31:22.841Z,13.27
2023-05-05T23:32:22.684Z,13.13
2023-05-05T23:33:22.702Z,12.95
2023-05-05T23:34:22.695Z,12.90
2023-05-05T23:35:22.695Z,12.83
2023-05-05T23:36:22.676Z,12.85
2023-05-05T23:37:22.662Z,12.85
2023-05-05T23:38:22.691Z,12.85
2023-05-05T23:39:22.680Z,12.93
2023-05-05T23:40:22.662Z,13.15
2023-05-05T23:41:22.628Z,13.11
2023-05-05T23:42:22.625Z,13.28
2023-05-05T23:43:23.614Z,13.30
2023-05-05T23:44:22.625Z,13.52
2023-05-05T23:45:22.645Z,13.65
2023-05-05T23:46:22.683Z,13.60
2023-05-05T23:47:22.588Z,13.65
2023-05-05T23:48:22.666Z,13.79
2023-05-05T23:49:22.630Z,13.67
2023-05-05T23:50:23.587Z,13.67
2023-05-05T23:51:22.580Z,13.60
2023-05-05T23:52:22.563Z,13.49
2023-05-05T23:53:22.586Z,13.42
2023-05-05T23:54:22.531Z,13.39
2023-05-05T23:55:22.543Z,13.56
2023-05-05T23:56:22.499Z,13.39
2023-05-05T23:57:22.541Z,13.20
2023-05-05T23:58:22.496Z,13.12
2023-05-05T23:59:22.469Z,13.00
